Bondville, IL (61815)

10:54 PM CST on December 02, 2016 (GMT -0600)
Weidengarten | | Change Station

Elev 712 ft 40.14 °N, 88.35 °W | Updated 36 seconds ago

Overcast
Overcast
38.1 °F
Feels Like 34 °F
N
5.6
Wind Variable Wind from NNW
Gusts 7.4 mph

Today
High -- | Low -- °F
--% Chance of Precip.
Yesterday
High -- | Low -- °F
Precip. -- in
Pressure 30.35 in
Visibility 10.0 miles
Clouds Overcast 3200 ft
Windchill 34 °F
Dew Point 34 °F
Humidity 84%
Rainfall 0.00 in
Snow Depth Not available.
6:57 AM 4:28 PM
Waxing Crescent, 12% visible
METAR KCMI 030353Z 32005KT 10SM OVC032 04/01 A3033 RMK AO2 SLP277 T00390006
Pressure 30.35 in
Visibility 10.0 miles
Clouds Overcast 3200 ft
Windchill 34 °F
Dew Point 34 °F
Humidity 84%
Rainfall 0.00 in
Snow Depth Not available.
6:57 AM 4:28 PM
Waxing Crescent, 12% visible
METAR KCMI 030353Z 32005KT 10SM OVC032 04/01 A3033 RMK AO2 SLP277 T00390006

10-Day Weather Forecast

Almanac

Astronomy

Dec. 02, 2016 Rise Set
Actual Time
Civil Twilight
Nautical Twilight
Astronomical Twilight
Moon
Length of Visible Light
Length of Day
Tomorrow will be .
, % of the Moon is Illuminated

Today's Extremes

State Highs State Lows

Community

WunderPhotos

Upload Photos

1,955,411 photos uploaded!

WunderBlog® & News

Nearby

Air Quality

  Air Quality AQ Index Pollutant
Not available.

Snow Depth

Station Depth Elevation

Earthquake Activity

City Distance Mag. Time & Date
Minimum magnitude displayed is 2.5.

Coastal Water Temperatures

Place Temperature

Stations

Nearby Weather Stations

Station Location Temp. Windchill Dew Point Humidity Wind Precip. Elev Updated Type
                   

Watches & Warnings

There are currently no watches in effect.